sensor_id;sensor_type;location;lat;lon;timestamp;P1;durP1;ratioP1;P2;durP2;ratioP2
55633;SDS011;41504;53.162;6.788;2022-10-19T00:01:06;9.25;;;2.50;;
55633;SDS011;41504;53.162;6.788;2022-10-19T00:03:32;8.13;;;2.33;;
55633;SDS011;41504;53.162;6.788;2022-10-19T00:08:54;8.43;;;1.90;;
55633;SDS011;41504;53.162;6.788;2022-10-19T00:11:22;8.70;;;2.35;;
55633;SDS011;41504;53.162;6.788;2022-10-19T00:13:48;6.63;;;2.00;;
55633;SDS011;41504;53.162;6.788;2022-10-19T00:16:15;7.57;;;2.08;;
55633;SDS011;41504;53.162;6.788;2022-10-19T00:18:42;8.07;;;2.20;;
55633;SDS011;41504;53.162;6.788;2022-10-19T00:21:10;9.40;;;2.20;;
55633;SDS011;41504;53.162;6.788;2022-10-19T00:23:38;6.30;;;1.60;;
55633;SDS011;41504;53.162;6.788;2022-10-19T00:26:04;7.43;;;1.90;;
55633;SDS011;41504;53.162;6.788;2022-10-19T00:28:29;5.75;;;1.90;;
55633;SDS011;41504;53.162;6.788;2022-10-19T00:30:55;5.28;;;1.50;;
55633;SDS011;41504;53.162;6.788;2022-10-19T00:35:54;6.90;;;2.03;;
55633;SDS011;41504;53.162;6.788;2022-10-19T00:38:20;6.63;;;1.80;;
55633;SDS011;41504;53.162;6.788;2022-10-19T00:46:53;6.82;;;1.63;;
55633;SDS011;41504;53.162;6.788;2022-10-19T00:49:24;4.53;;;1.50;;
55633;SDS011;41504;53.162;6.788;2022-10-19T00:52:03;6.80;;;2.00;;
55633;SDS011;41504;53.162;6.788;2022-10-19T00:54:32;7.05;;;1.65;;
55633;SDS011;41504;53.162;6.788;2022-10-19T00:57:00;4.10;;;1.48;;
55633;SDS011;41504;53.162;6.788;2022-10-19T00:59:28;7.78;;;1.83;;
55633;SDS011;41504;53.162;6.788;2022-10-19T01:01:56;7.38;;;1.95;;
55633;SDS011;41504;53.162;6.788;2022-10-19T01:04:23;6.35;;;1.70;;
55633;SDS011;41504;53.162;6.788;2022-10-19T01:06:53;9.70;;;1.90;;
55633;SDS011;41504;53.162;6.788;2022-10-19T01:09:22;8.15;;;1.70;;
55633;SDS011;41504;53.162;6.788;2022-10-19T01:14:54;5.53;;;1.80;;
55633;SDS011;41504;53.162;6.788;2022-10-19T01:17:39;7.95;;;2.10;;
55633;SDS011;41504;53.162;6.788;2022-10-19T01:31:37;6.72;;;2.03;;
55633;SDS011;41504;53.162;6.788;2022-10-19T01:34:24;6.65;;;1.90;;
55633;SDS011;41504;53.162;6.788;2022-10-19T01:37:05;5.90;;;1.70;;
55633;SDS011;41504;53.162;6.788;2022-10-19T01:40:06;5.38;;;1.60;;
55633;SDS011;41504;53.162;6.788;2022-10-19T01:45:32;6.70;;;1.80;;
55633;SDS011;41504;53.162;6.788;2022-10-19T01:48:06;8.82;;;1.90;;
55633;SDS011;41504;53.162;6.788;2022-10-19T01:50:46;7.72;;;1.60;;
55633;SDS011;41504;53.162;6.788;2022-10-19T01:53:13;6.70;;;1.60;;
55633;SDS011;41504;53.162;6.788;2022-10-19T01:55:42;11.48;;;1.55;;
55633;SDS011;41504;53.162;6.788;2022-10-19T01:58:12;7.85;;;2.00;;
55633;SDS011;41504;53.162;6.788;2022-10-19T02:00:42;5.35;;;1.52;;
55633;SDS011;41504;53.162;6.788;2022-10-19T02:03:10;4.10;;;1.42;;
55633;SDS011;41504;53.162;6.788;2022-10-19T02:05:37;6.85;;;1.58;;
55633;SDS011;41504;53.162;6.788;2022-10-19T02:08:05;7.55;;;1.95;;
55633;SDS011;41504;53.162;6.788;2022-10-19T02:10:36;6.57;;;1.50;;
55633;SDS011;41504;53.162;6.788;2022-10-19T02:13:03;8.15;;;1.60;;
55633;SDS011;41504;53.162;6.788;2022-10-19T02:15:31;6.55;;;1.70;;
55633;SDS011;41504;53.162;6.788;2022-10-19T02:18:02;7.43;;;1.55;;
55633;SDS011;41504;53.162;6.788;2022-10-19T02:20:28;9.27;;;2.35;;
55633;SDS011;41504;53.162;6.788;2022-10-19T02:22:55;5.55;;;1.50;;
55633;SDS011;41504;53.162;6.788;2022-10-19T02:25:21;7.82;;;1.63;;
55633;SDS011;41504;53.162;6.788;2022-10-19T02:27:48;6.35;;;1.35;;
55633;SDS011;41504;53.162;6.788;2022-10-19T02:30:15;9.20;;;1.88;;
55633;SDS011;41504;53.162;6.788;2022-10-19T02:32:44;7.82;;;1.60;;
55633;SDS011;41504;53.162;6.788;2022-10-19T02:35:10;7.18;;;1.73;;
55633;SDS011;41504;53.162;6.788;2022-10-19T02:37:38;5.95;;;1.65;;
55633;SDS011;41504;53.162;6.788;2022-10-19T02:40:05;6.47;;;1.75;;
55633;SDS011;41504;53.162;6.788;2022-10-19T02:42:37;7.53;;;1.75;;
55633;SDS011;41504;53.162;6.788;2022-10-19T02:45:21;6.65;;;1.52;;
55633;SDS011;41504;53.162;6.788;2022-10-19T02:48:01;6.97;;;1.50;;
55633;SDS011;41504;53.162;6.788;2022-10-19T02:50:29;9.38;;;1.70;;
55633;SDS011;41504;53.162;6.788;2022-10-19T02:52:57;9.05;;;1.60;;
55633;SDS011;41504;53.162;6.788;2022-10-19T02:55:23;8.48;;;1.67;;
55633;SDS011;41504;53.162;6.788;2022-10-19T02:57:49;8.70;;;1.70;;
55633;SDS011;41504;53.162;6.788;2022-10-19T03:00:15;4.75;;;1.40;;
55633;SDS011;41504;53.162;6.788;2022-10-19T03:02:41;5.78;;;1.65;;
55633;SDS011;41504;53.162;6.788;2022-10-19T03:05:07;8.75;;;1.55;;
55633;SDS011;41504;53.162;6.788;2022-10-19T03:07:33;6.13;;;1.67;;
55633;SDS011;41504;53.162;6.788;2022-10-19T03:09:59;8.85;;;1.60;;
55633;SDS011;41504;53.162;6.788;2022-10-19T03:12:31;7.22;;;1.77;;
55633;SDS011;41504;53.162;6.788;2022-10-19T03:14:56;6.90;;;1.42;;
55633;SDS011;41504;53.162;6.788;2022-10-19T03:17:22;7.43;;;1.92;;
55633;SDS011;41504;53.162;6.788;2022-10-19T03:19:48;6.18;;;1.60;;
55633;SDS011;41504;53.162;6.788;2022-10-19T03:22:13;6.78;;;1.48;;
55633;SDS011;41504;53.162;6.788;2022-10-19T03:24:39;10.10;;;1.90;;
55633;SDS011;41504;53.162;6.788;2022-10-19T03:27:05;9.32;;;1.88;;
55633;SDS011;41504;53.162;6.788;2022-10-19T03:29:30;6.97;;;1.88;;
55633;SDS011;41504;53.162;6.788;2022-10-19T03:31:56;7.30;;;1.67;;
55633;SDS011;41504;53.162;6.788;2022-10-19T03:34:22;8.57;;;2.08;;
55633;SDS011;41504;53.162;6.788;2022-10-19T03:36:47;6.85;;;2.03;;
55633;SDS011;41504;53.162;6.788;2022-10-19T03:39:14;8.25;;;1.60;;
55633;SDS011;41504;53.162;6.788;2022-10-19T03:41:41;7.80;;;1.60;;
55633;SDS011;41504;53.162;6.788;2022-10-19T03:44:07;7.28;;;1.42;;
55633;SDS011;41504;53.162;6.788;2022-10-19T03:46:34;4.53;;;1.60;;
55633;SDS011;41504;53.162;6.788;2022-10-19T03:49:00;5.85;;;1.70;;
55633;SDS011;41504;53.162;6.788;2022-10-19T03:51:27;7.20;;;1.77;;
55633;SDS011;41504;53.162;6.788;2022-10-19T03:53:55;7.45;;;1.55;;
55633;SDS011;41504;53.162;6.788;2022-10-19T03:56:23;5.20;;;1.90;;
55633;SDS011;41504;53.162;6.788;2022-10-19T03:58:53;10.88;;;1.88;;
55633;SDS011;41504;53.162;6.788;2022-10-19T04:01:31;12.30;;;1.90;;
55633;SDS011;41504;53.162;6.788;2022-10-19T04:04:03;8.40;;;1.77;;
55633;SDS011;41504;53.162;6.788;2022-10-19T04:06:31;11.75;;;1.90;;
55633;SDS011;41504;53.162;6.788;2022-10-19T04:09:03;10.10;;;1.70;;
55633;SDS011;41504;53.162;6.788;2022-10-19T04:11:33;13.05;;;2.08;;
55633;SDS011;41504;53.162;6.788;2022-10-19T04:14:00;7.93;;;2.15;;
55633;SDS011;41504;53.162;6.788;2022-10-19T04:16:26;10.27;;;2.08;;
55633;SDS011;41504;53.162;6.788;2022-10-19T04:18:53;8.90;;;1.70;;
55633;SDS011;41504;53.162;6.788;2022-10-19T04:21:33;8.85;;;1.88;;
55633;SDS011;41504;53.162;6.788;2022-10-19T04:24:01;10.13;;;1.95;;
55633;SDS011;41504;53.162;6.788;2022-10-19T04:26:29;11.32;;;2.05;;
55633;SDS011;41504;53.162;6.788;2022-10-19T04:28:56;8.05;;;2.00;;
55633;SDS011;41504;53.162;6.788;2022-10-19T04:31:26;8.02;;;1.73;;
55633;SDS011;41504;53.162;6.788;2022-10-19T04:33:52;7.43;;;1.83;;
55633;SDS011;41504;53.162;6.788;2022-10-19T04:36:18;11.45;;;2.13;;
55633;SDS011;41504;53.162;6.788;2022-10-19T04:38:44;9.15;;;2.08;;
55633;SDS011;41504;53.162;6.788;2022-10-19T04:41:10;9.07;;;2.00;;
55633;SDS011;41504;53.162;6.788;2022-10-19T04:43:38;8.82;;;2.00;;
55633;SDS011;41504;53.162;6.788;2022-10-19T04:46:08;10.98;;;2.13;;
55633;SDS011;41504;53.162;6.788;2022-10-19T04:48:41;10.68;;;1.98;;
55633;SDS011;41504;53.162;6.788;2022-10-19T04:51:08;11.27;;;1.98;;
55633;SDS011;41504;53.162;6.788;2022-10-19T04:53:35;9.88;;;2.08;;
55633;SDS011;41504;53.162;6.788;2022-10-19T04:58:56;10.70;;;2.00;;
55633;SDS011;41504;53.162;6.788;2022-10-19T05:01:24;8.35;;;1.85;;
55633;SDS011;41504;53.162;6.788;2022-10-19T05:03:52;11.00;;;2.05;;
55633;SDS011;41504;53.162;6.788;2022-10-19T05:06:20;8.63;;;1.70;;
55633;SDS011;41504;53.162;6.788;2022-10-19T05:08:47;9.77;;;2.00;;
55633;SDS011;41504;53.162;6.788;2022-10-19T05:11:14;10.43;;;1.98;;
55633;SDS011;41504;53.162;6.788;2022-10-19T05:13:40;10.82;;;2.08;;
55633;SDS011;41504;53.162;6.788;2022-10-19T05:16:07;8.57;;;1.95;;
55633;SDS011;41504;53.162;6.788;2022-10-19T05:18:36;9.30;;;2.38;;
55633;SDS011;41504;53.162;6.788;2022-10-19T05:21:08;10.85;;;2.20;;
55633;SDS011;41504;53.162;6.788;2022-10-19T05:23:35;6.22;;;1.60;;
55633;SDS011;41504;53.162;6.788;2022-10-19T05:28:35;7.75;;;2.33;;
55633;SDS011;41504;53.162;6.788;2022-10-19T05:31:05;9.00;;;1.90;;
55633;SDS011;41504;53.162;6.788;2022-10-19T05:33:36;9.15;;;2.00;;
55633;SDS011;41504;53.162;6.788;2022-10-19T05:41:05;9.55;;;1.85;;
55633;SDS011;41504;53.162;6.788;2022-10-19T05:43:31;8.93;;;1.98;;
55633;SDS011;41504;53.162;6.788;2022-10-19T05:46:01;7.22;;;1.88;;
55633;SDS011;41504;53.162;6.788;2022-10-19T05:48:28;9.20;;;2.15;;
55633;SDS011;41504;53.162;6.788;2022-10-19T05:50:57;7.28;;;1.95;;
55633;SDS011;41504;53.162;6.788;2022-10-19T05:53:24;9.15;;;1.73;;
55633;SDS011;41504;53.162;6.788;2022-10-19T05:55:50;12.70;;;2.50;;
55633;SDS011;41504;53.162;6.788;2022-10-19T05:58:16;9.43;;;2.40;;
55633;SDS011;41504;53.162;6.788;2022-10-19T06:00:41;11.82;;;2.13;;
55633;SDS011;41504;53.162;6.788;2022-10-19T06:03:07;12.00;;;2.38;;
55633;SDS011;41504;53.162;6.788;2022-10-19T06:05:35;11.75;;;2.55;;
55633;SDS011;41504;53.162;6.788;2022-10-19T17:05:54;8.38;;;3.28;;
55633;SDS011;41504;53.162;6.788;2022-10-19T17:08:20;9.23;;;3.28;;
55633;SDS011;41504;53.162;6.788;2022-10-19T17:10:45;6.32;;;2.65;;
55633;SDS011;41504;53.162;6.788;2022-10-19T17:13:12;8.55;;;3.25;;
55633;SDS011;41504;53.162;6.788;2022-10-19T17:15:37;8.25;;;2.70;;
55633;SDS011;41504;53.162;6.788;2022-10-19T17:18:03;6.53;;;2.60;;
55633;SDS011;41504;53.162;6.788;2022-10-19T17:20:31;11.38;;;2.97;;
55633;SDS011;41504;53.162;6.788;2022-10-19T17:22:57;8.00;;;2.80;;
55633;SDS011;41504;53.162;6.788;2022-10-19T17:25:23;7.97;;;2.75;;
55633;SDS011;41504;53.162;6.788;2022-10-19T17:27:49;7.75;;;2.60;;
55633;SDS011;41504;53.162;6.788;2022-10-19T17:30:15;8.23;;;2.47;;
55633;SDS011;41504;53.162;6.788;2022-10-19T17:32:41;6.97;;;2.47;;
55633;SDS011;41504;53.162;6.788;2022-10-19T17:35:07;7.22;;;2.13;;
55633;SDS011;41504;53.162;6.788;2022-10-19T17:37:33;6.38;;;2.20;;
55633;SDS011;41504;53.162;6.788;2022-10-19T17:39:59;6.28;;;2.00;;
55633;SDS011;41504;53.162;6.788;2022-10-19T17:42:24;6.72;;;2.25;;
55633;SDS011;41504;53.162;6.788;2022-10-19T17:44:52;5.93;;;2.30;;
55633;SDS011;41504;53.162;6.788;2022-10-19T17:47:18;6.72;;;2.22;;
55633;SDS011;41504;53.162;6.788;2022-10-19T17:49:43;7.63;;;2.10;;
55633;SDS011;41504;53.162;6.788;2022-10-19T17:52:09;11.82;;;2.70;;
55633;SDS011;41504;53.162;6.788;2022-10-19T17:54:35;7.40;;;2.70;;
55633;SDS011;41504;53.162;6.788;2022-10-19T17:57:00;6.85;;;2.80;;
55633;SDS011;41504;53.162;6.788;2022-10-19T17:59:27;7.75;;;2.60;;
55633;SDS011;41504;53.162;6.788;2022-10-19T18:01:53;8.32;;;2.20;;
55633;SDS011;41504;53.162;6.788;2022-10-19T18:04:19;6.38;;;2.30;;
55633;SDS011;41504;53.162;6.788;2022-10-19T18:06:45;6.03;;;2.50;;
55633;SDS011;41504;53.162;6.788;2022-10-19T18:09:10;7.45;;;2.60;;
55633;SDS011;41504;53.162;6.788;2022-10-19T18:11:41;7.88;;;3.10;;
55633;SDS011;41504;53.162;6.788;2022-10-19T18:14:09;8.88;;;2.50;;
55633;SDS011;41504;53.162;6.788;2022-10-19T18:16:38;9.02;;;2.70;;
55633;SDS011;41504;53.162;6.788;2022-10-19T18:19:09;7.40;;;2.75;;
55633;SDS011;41504;53.162;6.788;2022-10-19T18:21:39;6.03;;;2.85;;
55633;SDS011;41504;53.162;6.788;2022-10-19T18:24:07;7.22;;;2.80;;
55633;SDS011;41504;53.162;6.788;2022-10-19T18:26:37;6.53;;;2.97;;
55633;SDS011;41504;53.162;6.788;2022-10-19T18:29:36;9.23;;;3.22;;
55633;SDS011;41504;53.162;6.788;2022-10-19T18:31:55;8.13;;;2.80;;
55633;SDS011;41504;53.162;6.788;2022-10-19T18:34:22;7.18;;;3.05;;
55633;SDS011;41504;53.162;6.788;2022-10-19T18:36:49;11.07;;;3.08;;
55633;SDS011;41504;53.162;6.788;2022-10-19T18:39:15;6.78;;;3.05;;
55633;SDS011;41504;53.162;6.788;2022-10-19T18:41:42;7.90;;;3.17;;
55633;SDS011;41504;53.162;6.788;2022-10-19T18:44:09;8.15;;;3.17;;
55633;SDS011;41504;53.162;6.788;2022-10-19T18:46:36;7.80;;;3.30;;
55633;SDS011;41504;53.162;6.788;2022-10-19T18:49:03;10.95;;;4.65;;
55633;SDS011;41504;53.162;6.788;2022-10-19T18:51:30;10.23;;;5.68;;
55633;SDS011;41504;53.162;6.788;2022-10-19T18:53:58;12.68;;;5.63;;
55633;SDS011;41504;53.162;6.788;2022-10-19T18:56:24;14.40;;;4.82;;
55633;SDS011;41504;53.162;6.788;2022-10-19T18:58:50;8.70;;;4.20;;
55633;SDS011;41504;53.162;6.788;2022-10-19T19:01:21;6.97;;;3.35;;
55633;SDS011;41504;53.162;6.788;2022-10-19T19:03:52;9.40;;;3.00;;
55633;SDS011;41504;53.162;6.788;2022-10-19T19:06:25;7.97;;;3.40;;
55633;SDS011;41504;53.162;6.788;2022-10-19T19:08:57;7.32;;;2.97;;
55633;SDS011;41504;53.162;6.788;2022-10-19T19:11:25;6.30;;;2.80;;
55633;SDS011;41504;53.162;6.788;2022-10-19T19:13:56;7.90;;;3.20;;
55633;SDS011;41504;53.162;6.788;2022-10-19T19:16:31;7.68;;;3.28;;
55633;SDS011;41504;53.162;6.788;2022-10-19T19:18:59;8.15;;;2.80;;
55633;SDS011;41504;53.162;6.788;2022-10-19T19:21:25;6.57;;;2.85;;
55633;SDS011;41504;53.162;6.788;2022-10-19T19:23:53;7.65;;;2.90;;
55633;SDS011;41504;53.162;6.788;2022-10-19T19:26:21;8.95;;;3.08;;
55633;SDS011;41504;53.162;6.788;2022-10-19T19:28:48;7.93;;;3.00;;
55633;SDS011;41504;53.162;6.788;2022-10-19T19:31:14;8.82;;;3.13;;
55633;SDS011;41504;53.162;6.788;2022-10-19T19:33:40;10.70;;;3.20;;
55633;SDS011;41504;53.162;6.788;2022-10-19T19:36:08;5.72;;;3.00;;
55633;SDS011;41504;53.162;6.788;2022-10-19T19:38:35;9.50;;;3.50;;
55633;SDS011;41504;53.162;6.788;2022-10-19T19:41:04;13.15;;;3.95;;
55633;SDS011;41504;53.162;6.788;2022-10-19T19:43:32;8.23;;;3.30;;
55633;SDS011;41504;53.162;6.788;2022-10-19T19:46:01;9.88;;;3.60;;
55633;SDS011;41504;53.162;6.788;2022-10-19T19:48:28;9.95;;;3.50;;
55633;SDS011;41504;53.162;6.788;2022-10-19T19:50:54;6.95;;;3.60;;
55633;SDS011;41504;53.162;6.788;2022-10-19T19:53:20;6.68;;;3.60;;
55633;SDS011;41504;53.162;6.788;2022-10-19T19:55:46;10.25;;;4.28;;
55633;SDS011;41504;53.162;6.788;2022-10-19T19:58:14;8.15;;;3.55;;
55633;SDS011;41504;53.162;6.788;2022-10-19T20:00:41;9.10;;;3.83;;
55633;SDS011;41504;53.162;6.788;2022-10-19T20:03:07;12.50;;;4.10;;
55633;SDS011;41504;53.162;6.788;2022-10-19T20:05:32;13.27;;;4.15;;
55633;SDS011;41504;53.162;6.788;2022-10-19T20:07:58;9.13;;;4.47;;
55633;SDS011;41504;53.162;6.788;2022-10-19T20:10:25;9.15;;;4.47;;
55633;SDS011;41504;53.162;6.788;2022-10-19T20:12:50;8.68;;;4.43;;
55633;SDS011;41504;53.162;6.788;2022-10-19T20:15:16;9.95;;;4.55;;
55633;SDS011;41504;53.162;6.788;2022-10-19T20:17:43;9.32;;;4.63;;
55633;SDS011;41504;53.162;6.788;2022-10-19T20:20:09;7.80;;;4.43;;
55633;SDS011;41504;53.162;6.788;2022-10-19T20:22:37;9.98;;;4.13;;
55633;SDS011;41504;53.162;6.788;2022-10-19T20:25:03;9.98;;;4.35;;
55633;SDS011;41504;53.162;6.788;2022-10-19T20:27:29;10.55;;;4.13;;
55633;SDS011;41504;53.162;6.788;2022-10-19T20:29:58;8.30;;;3.83;;
55633;SDS011;41504;53.162;6.788;2022-10-19T20:32:24;9.40;;;3.85;;
55633;SDS011;41504;53.162;6.788;2022-10-19T20:34:53;8.73;;;3.83;;
55633;SDS011;41504;53.162;6.788;2022-10-19T20:37:19;7.72;;;3.92;;
55633;SDS011;41504;53.162;6.788;2022-10-19T20:39:46;9.27;;;4.20;;
55633;SDS011;41504;53.162;6.788;2022-10-19T20:42:12;9.88;;;4.28;;
55633;SDS011;41504;53.162;6.788;2022-10-19T20:44:39;10.20;;;4.03;;
55633;SDS011;41504;53.162;6.788;2022-10-19T20:47:04;11.65;;;4.28;;
55633;SDS011;41504;53.162;6.788;2022-10-19T20:49:33;7.88;;;3.80;;
55633;SDS011;41504;53.162;6.788;2022-10-19T20:51:59;8.75;;;3.92;;
55633;SDS011;41504;53.162;6.788;2022-10-19T20:54:25;8.77;;;4.65;;
55633;SDS011;41504;53.162;6.788;2022-10-19T20:56:51;9.23;;;4.15;;
55633;SDS011;41504;53.162;6.788;2022-10-19T20:59:18;10.52;;;4.90;;
55633;SDS011;41504;53.162;6.788;2022-10-19T21:01:47;10.38;;;4.10;;
55633;SDS011;41504;53.162;6.788;2022-10-19T21:04:14;10.00;;;4.40;;
55633;SDS011;41504;53.162;6.788;2022-10-19T21:06:41;10.48;;;4.63;;
55633;SDS011;41504;53.162;6.788;2022-10-19T21:09:11;10.38;;;4.30;;
55633;SDS011;41504;53.162;6.788;2022-10-19T21:11:39;9.60;;;4.25;;
55633;SDS011;41504;53.162;6.788;2022-10-19T21:14:16;6.90;;;4.22;;
55633;SDS011;41504;53.162;6.788;2022-10-19T21:16:44;9.40;;;4.88;;
55633;SDS011;41504;53.162;6.788;2022-10-19T21:19:10;10.13;;;4.60;;
55633;SDS011;41504;53.162;6.788;2022-10-19T21:21:39;8.10;;;4.40;;
55633;SDS011;41504;53.162;6.788;2022-10-19T21:24:14;10.85;;;4.40;;
55633;SDS011;41504;53.162;6.788;2022-10-19T21:26:42;9.45;;;4.65;;
55633;SDS011;41504;53.162;6.788;2022-10-19T21:29:09;7.70;;;4.28;;
55633;SDS011;41504;53.162;6.788;2022-10-19T21:31:37;7.82;;;4.57;;
55633;SDS011;41504;53.162;6.788;2022-10-19T21:34:05;12.50;;;5.43;;
55633;SDS011;41504;53.162;6.788;2022-10-19T21:36:32;9.55;;;4.50;;
55633;SDS011;41504;53.162;6.788;2022-10-19T21:38:58;9.40;;;4.95;;
55633;SDS011;41504;53.162;6.788;2022-10-19T21:41:24;11.55;;;4.60;;
55633;SDS011;41504;53.162;6.788;2022-10-19T21:43:50;9.25;;;5.07;;
55633;SDS011;41504;53.162;6.788;2022-10-19T21:46:16;7.97;;;4.63;;
55633;SDS011;41504;53.162;6.788;2022-10-19T21:48:44;11.10;;;4.40;;
55633;SDS011;41504;53.162;6.788;2022-10-19T21:51:21;9.73;;;5.10;;
55633;SDS011;41504;53.162;6.788;2022-10-19T21:53:48;8.52;;;5.10;;
55633;SDS011;41504;53.162;6.788;2022-10-19T21:56:14;10.35;;;4.85;;
55633;SDS011;41504;53.162;6.788;2022-10-19T21:58:47;9.57;;;4.88;;
55633;SDS011;41504;53.162;6.788;2022-10-19T22:01:15;9.95;;;5.30;;
55633;SDS011;41504;53.162;6.788;2022-10-19T22:03:41;9.10;;;4.65;;
55633;SDS011;41504;53.162;6.788;2022-10-19T22:06:07;9.13;;;4.80;;
55633;SDS011;41504;53.162;6.788;2022-10-19T22:08:34;10.27;;;4.95;;
55633;SDS011;41504;53.162;6.788;2022-10-19T22:11:06;7.78;;;4.85;;
55633;SDS011;41504;53.162;6.788;2022-10-19T22:13:34;8.48;;;5.07;;
55633;SDS011;41504;53.162;6.788;2022-10-19T22:18:39;10.45;;;4.43;;
55633;SDS011;41504;53.162;6.788;2022-10-19T22:21:09;12.50;;;5.53;;
55633;SDS011;41504;53.162;6.788;2022-10-19T22:23:37;9.95;;;5.10;;
55633;SDS011;41504;53.162;6.788;2022-10-19T22:26:13;10.23;;;5.43;;
55633;SDS011;41504;53.162;6.788;2022-10-19T22:28:41;9.88;;;5.65;;
55633;SDS011;41504;53.162;6.788;2022-10-19T22:31:07;12.90;;;5.40;;
55633;SDS011;41504;53.162;6.788;2022-10-19T22:33:33;8.90;;;5.13;;
55633;SDS011;41504;53.162;6.788;2022-10-19T22:36:06;13.20;;;5.15;;
55633;SDS011;41504;53.162;6.788;2022-10-19T22:38:34;10.15;;;5.68;;
55633;SDS011;41504;53.162;6.788;2022-10-19T22:44:21;15.02;;;5.45;;
55633;SDS011;41504;53.162;6.788;2022-10-19T22:46:47;9.45;;;5.22;;
55633;SDS011;41504;53.162;6.788;2022-10-19T22:49:13;12.60;;;5.43;;
55633;SDS011;41504;53.162;6.788;2022-10-19T22:51:38;13.23;;;5.05;;
55633;SDS011;41504;53.162;6.788;2022-10-19T22:54:04;13.15;;;5.80;;
55633;SDS011;41504;53.162;6.788;2022-10-19T22:56:30;10.93;;;5.88;;
55633;SDS011;41504;53.162;6.788;2022-10-19T22:58:59;14.10;;;5.43;;
55633;SDS011;41504;53.162;6.788;2022-10-19T23:01:29;8.82;;;5.20;;
55633;SDS011;41504;53.162;6.788;2022-10-19T23:03:59;7.55;;;4.65;;
55633;SDS011;41504;53.162;6.788;2022-10-19T23:06:24;11.45;;;5.30;;
55633;SDS011;41504;53.162;6.788;2022-10-19T23:08:50;8.27;;;5.28;;
55633;SDS011;41504;53.162;6.788;2022-10-19T23:11:17;11.95;;;5.00;;
55633;SDS011;41504;53.162;6.788;2022-10-19T23:13:44;7.22;;;4.72;;
55633;SDS011;41504;53.162;6.788;2022-10-19T23:16:09;11.13;;;6.00;;
55633;SDS011;41504;53.162;6.788;2022-10-19T23:18:36;12.50;;;5.30;;
55633;SDS011;41504;53.162;6.788;2022-10-19T23:21:08;12.70;;;5.20;;
55633;SDS011;41504;53.162;6.788;2022-10-19T23:23:36;11.20;;;5.07;;
55633;SDS011;41504;53.162;6.788;2022-10-19T23:26:15;10.63;;;5.30;;
55633;SDS011;41504;53.162;6.788;2022-10-19T23:28:43;10.60;;;5.40;;
55633;SDS011;41504;53.162;6.788;2022-10-19T23:31:11;9.90;;;5.35;;
55633;SDS011;41504;53.162;6.788;2022-10-19T23:33:39;10.57;;;5.18;;
55633;SDS011;41504;53.162;6.788;2022-10-19T23:36:06;10.18;;;5.10;;
55633;SDS011;41504;53.162;6.788;2022-10-19T23:38:34;10.05;;;5.43;;
55633;SDS011;41504;53.162;6.788;2022-10-19T23:40:59;9.85;;;5.35;;
55633;SDS011;41504;53.162;6.788;2022-10-19T23:43:25;9.68;;;5.00;;
55633;SDS011;41504;53.162;6.788;2022-10-19T23:45:51;8.60;;;5.15;;
55633;SDS011;41504;53.162;6.788;2022-10-19T23:48:17;10.27;;;5.63;;
55633;SDS011;41504;53.162;6.788;2022-10-19T23:50:43;10.63;;;5.30;;
55633;SDS011;41504;53.162;6.788;2022-10-19T23:53:09;10.50;;;5.03;;
55633;SDS011;41504;53.162;6.788;2022-10-19T23:55:34;9.32;;;4.78;;
55633;SDS011;41504;53.162;6.788;2022-10-19T23:58:00;11.02;;;5.38;;
